sensor_id;sensor_type;location;lat;lon;timestamp;P1;durP1;ratioP1;P2;durP2;ratioP2
30335;SDS011;17142;47.990;7.846;2023-04-03T00:01:20;5.37;;;4.37;;
30335;SDS011;17142;47.990;7.846;2023-04-03T00:03:48;6.00;;;4.90;;
30335;SDS011;17142;47.990;7.846;2023-04-03T00:06:15;5.20;;;4.07;;
30335;SDS011;17142;47.990;7.846;2023-04-03T00:08:40;5.33;;;4.73;;
30335;SDS011;17142;47.990;7.846;2023-04-03T00:11:11;5.47;;;4.97;;
30335;SDS011;17142;47.990;7.846;2023-04-03T00:13:37;5.30;;;4.80;;
30335;SDS011;17142;47.990;7.846;2023-04-03T00:16:03;5.47;;;4.10;;
30335;SDS011;17142;47.990;7.846;2023-04-03T00:18:29;6.53;;;4.53;;
30335;SDS011;17142;47.990;7.846;2023-04-03T00:20:56;6.60;;;4.67;;
30335;SDS011;17142;47.990;7.846;2023-04-03T00:23:24;4.73;;;4.30;;
30335;SDS011;17142;47.990;7.846;2023-04-03T00:25:50;5.03;;;4.47;;
30335;SDS011;17142;47.990;7.846;2023-04-03T00:28:17;6.07;;;4.03;;
30335;SDS011;17142;47.990;7.846;2023-04-03T00:30:45;4.60;;;4.20;;
30335;SDS011;17142;47.990;7.846;2023-04-03T00:33:13;5.30;;;4.80;;
30335;SDS011;17142;47.990;7.846;2023-04-03T00:35:39;4.37;;;3.97;;
30335;SDS011;17142;47.990;7.846;2023-04-03T00:38:06;5.40;;;4.37;;
30335;SDS011;17142;47.990;7.846;2023-04-03T00:40:38;5.30;;;4.80;;
30335;SDS011;17142;47.990;7.846;2023-04-03T00:43:14;6.33;;;4.00;;
30335;SDS011;17142;47.990;7.846;2023-04-03T00:45:44;4.73;;;4.30;;
30335;SDS011;17142;47.990;7.846;2023-04-03T00:48:17;4.20;;;3.80;;
30335;SDS011;17142;47.990;7.846;2023-04-03T00:51:04;6.50;;;4.93;;
30335;SDS011;17142;47.990;7.846;2023-04-03T00:53:39;5.17;;;4.53;;
30335;SDS011;17142;47.990;7.846;2023-04-03T00:56:08;4.70;;;3.90;;
30335;SDS011;17142;47.990;7.846;2023-04-03T00:58:39;7.30;;;4.60;;
30335;SDS011;17142;47.990;7.846;2023-04-03T01:01:11;5.67;;;5.17;;
30335;SDS011;17142;47.990;7.846;2023-04-03T01:03:42;4.97;;;4.20;;
30335;SDS011;17142;47.990;7.846;2023-04-03T01:06:10;7.27;;;3.50;;
30335;SDS011;17142;47.990;7.846;2023-04-03T01:08:36;4.23;;;3.83;;
30335;SDS011;17142;47.990;7.846;2023-04-03T01:11:05;4.77;;;3.80;;
30335;SDS011;17142;47.990;7.846;2023-04-03T01:13:32;4.63;;;4.23;;
30335;SDS011;17142;47.990;7.846;2023-04-03T01:16:02;4.80;;;3.63;;
30335;SDS011;17142;47.990;7.846;2023-04-03T01:18:29;7.47;;;4.27;;
30335;SDS011;17142;47.990;7.846;2023-04-03T01:23:46;4.73;;;4.13;;
30335;SDS011;17142;47.990;7.846;2023-04-03T01:26:18;4.53;;;4.13;;
30335;SDS011;17142;47.990;7.846;2023-04-03T01:28:46;4.10;;;3.80;;
30335;SDS011;17142;47.990;7.846;2023-04-03T01:33:46;5.07;;;4.30;;
30335;SDS011;17142;47.990;7.846;2023-04-03T01:39:05;4.27;;;3.87;;
30335;SDS011;17142;47.990;7.846;2023-04-03T01:41:33;4.20;;;3.80;;
30335;SDS011;17142;47.990;7.846;2023-04-03T01:44:01;6.73;;;4.20;;
30335;SDS011;17142;47.990;7.846;2023-04-03T01:46:26;4.90;;;4.20;;
30335;SDS011;17142;47.990;7.846;2023-04-03T01:48:52;6.27;;;4.53;;
30335;SDS011;17142;47.990;7.846;2023-04-03T01:51:18;4.60;;;3.97;;
30335;SDS011;17142;47.990;7.846;2023-04-03T01:53:43;3.20;;;2.90;;
30335;SDS011;17142;47.990;7.846;2023-04-03T01:56:11;3.90;;;3.40;;
30335;SDS011;17142;47.990;7.846;2023-04-03T01:58:37;5.23;;;3.50;;
30335;SDS011;17142;47.990;7.846;2023-04-03T02:01:05;4.20;;;3.30;;
30335;SDS011;17142;47.990;7.846;2023-04-03T02:03:31;5.10;;;3.50;;
30335;SDS011;17142;47.990;7.846;2023-04-03T02:05:57;4.00;;;3.30;;
30335;SDS011;17142;47.990;7.846;2023-04-03T02:08:26;3.83;;;3.43;;
30335;SDS011;17142;47.990;7.846;2023-04-03T02:10:53;3.00;;;2.70;;
30335;SDS011;17142;47.990;7.846;2023-04-03T02:13:19;4.43;;;3.33;;
30335;SDS011;17142;47.990;7.846;2023-04-03T02:15:47;4.53;;;3.20;;
30335;SDS011;17142;47.990;7.846;2023-04-03T02:18:13;3.97;;;2.90;;
30335;SDS011;17142;47.990;7.846;2023-04-03T02:20:41;3.97;;;3.67;;
30335;SDS011;17142;47.990;7.846;2023-04-03T02:23:07;3.47;;;3.17;;
30335;SDS011;17142;47.990;7.846;2023-04-03T02:25:35;5.53;;;3.20;;
30335;SDS011;17142;47.990;7.846;2023-04-03T02:28:01;5.10;;;4.60;;
30335;SDS011;17142;47.990;7.846;2023-04-03T02:30:26;3.50;;;3.20;;
30335;SDS011;17142;47.990;7.846;2023-04-03T02:32:52;5.47;;;3.63;;
30335;SDS011;17142;47.990;7.846;2023-04-03T02:35:18;5.70;;;4.67;;
30335;SDS011;17142;47.990;7.846;2023-04-03T02:37:43;3.60;;;3.30;;
30335;SDS011;17142;47.990;7.846;2023-04-03T02:40:09;4.93;;;3.70;;
30335;SDS011;17142;47.990;7.846;2023-04-03T02:42:36;3.10;;;2.70;;
30335;SDS011;17142;47.990;7.846;2023-04-03T02:45:04;3.87;;;3.27;;
30335;SDS011;17142;47.990;7.846;2023-04-03T02:47:32;4.00;;;3.60;;
30335;SDS011;17142;47.990;7.846;2023-04-03T02:50:00;3.93;;;3.63;;
30335;SDS011;17142;47.990;7.846;2023-04-03T02:52:26;4.33;;;3.17;;
30335;SDS011;17142;47.990;7.846;2023-04-03T02:54:51;4.73;;;4.03;;
30335;SDS011;17142;47.990;7.846;2023-04-03T02:57:17;4.17;;;3.57;;
30335;SDS011;17142;47.990;7.846;2023-04-03T02:59:44;4.47;;;3.80;;
30335;SDS011;17142;47.990;7.846;2023-04-03T03:02:12;3.83;;;3.43;;
30335;SDS011;17142;47.990;7.846;2023-04-03T03:04:37;4.10;;;3.70;;
30335;SDS011;17142;47.990;7.846;2023-04-03T03:07:03;4.53;;;3.63;;
30335;SDS011;17142;47.990;7.846;2023-04-03T03:09:31;3.80;;;3.50;;
30335;SDS011;17142;47.990;7.846;2023-04-03T03:11:57;4.80;;;4.30;;
30335;SDS011;17142;47.990;7.846;2023-04-03T03:14:23;6.70;;;4.87;;
30335;SDS011;17142;47.990;7.846;2023-04-03T03:16:51;7.20;;;4.97;;
30335;SDS011;17142;47.990;7.846;2023-04-03T03:19:17;5.97;;;3.57;;
30335;SDS011;17142;47.990;7.846;2023-04-03T03:21:45;4.23;;;3.53;;
30335;SDS011;17142;47.990;7.846;2023-04-03T03:24:10;4.10;;;3.60;;
30335;SDS011;17142;47.990;7.846;2023-04-03T03:26:37;3.70;;;3.10;;
30335;SDS011;17142;47.990;7.846;2023-04-03T03:29:04;3.63;;;3.33;;
30335;SDS011;17142;47.990;7.846;2023-04-03T03:31:30;3.80;;;3.40;;
30335;SDS011;17142;47.990;7.846;2023-04-03T03:33:56;7.03;;;5.17;;
30335;SDS011;17142;47.990;7.846;2023-04-03T03:36:23;4.00;;;3.60;;
30335;SDS011;17142;47.990;7.846;2023-04-03T03:38:49;4.30;;;3.90;;
30335;SDS011;17142;47.990;7.846;2023-04-03T03:41:15;3.80;;;3.47;;
30335;SDS011;17142;47.990;7.846;2023-04-03T03:43:40;3.63;;;3.30;;
30335;SDS011;17142;47.990;7.846;2023-04-03T03:46:09;3.90;;;3.50;;
30335;SDS011;17142;47.990;7.846;2023-04-03T03:48:34;5.43;;;3.73;;
30335;SDS011;17142;47.990;7.846;2023-04-03T03:51:00;4.23;;;3.83;;
30335;SDS011;17142;47.990;7.846;2023-04-03T03:53:26;6.43;;;4.13;;
30335;SDS011;17142;47.990;7.846;2023-04-03T03:55:53;4.03;;;3.47;;
30335;SDS011;17142;47.990;7.846;2023-04-03T03:58:21;4.30;;;3.90;;
30335;SDS011;17142;47.990;7.846;2023-04-03T04:00:53;4.37;;;3.60;;
30335;SDS011;17142;47.990;7.846;2023-04-03T04:06:08;3.97;;;3.17;;
30335;SDS011;17142;47.990;7.846;2023-04-03T04:08:37;3.17;;;2.80;;
30335;SDS011;17142;47.990;7.846;2023-04-03T04:11:13;3.97;;;3.40;;
30335;SDS011;17142;47.990;7.846;2023-04-03T04:13:41;4.00;;;3.60;;
30335;SDS011;17142;47.990;7.846;2023-04-03T04:16:09;4.40;;;2.90;;
30335;SDS011;17142;47.990;7.846;2023-04-03T04:18:37;3.20;;;2.97;;
30335;SDS011;17142;47.990;7.846;2023-04-03T04:21:05;4.43;;;2.90;;
30335;SDS011;17142;47.990;7.846;2023-04-03T04:23:31;4.07;;;3.03;;
30335;SDS011;17142;47.990;7.846;2023-04-03T04:25:56;5.90;;;3.33;;
30335;SDS011;17142;47.990;7.846;2023-04-03T04:28:22;3.80;;;2.93;;
30335;SDS011;17142;47.990;7.846;2023-04-03T04:30:48;3.77;;;3.20;;
30335;SDS011;17142;47.990;7.846;2023-04-03T04:33:13;4.00;;;3.70;;
30335;SDS011;17142;47.990;7.846;2023-04-03T04:35:41;3.20;;;2.90;;
30335;SDS011;17142;47.990;7.846;2023-04-03T04:38:09;2.67;;;2.43;;
30335;SDS011;17142;47.990;7.846;2023-04-03T04:40:35;3.20;;;2.90;;
30335;SDS011;17142;47.990;7.846;2023-04-03T04:43:02;4.90;;;3.60;;
30335;SDS011;17142;47.990;7.846;2023-04-03T04:45:30;3.47;;;3.17;;
30335;SDS011;17142;47.990;7.846;2023-04-03T04:47:56;3.03;;;2.73;;
30335;SDS011;17142;47.990;7.846;2023-04-03T04:50:22;3.53;;;3.10;;
30335;SDS011;17142;47.990;7.846;2023-04-03T04:52:47;3.07;;;2.87;;
30335;SDS011;17142;47.990;7.846;2023-04-03T04:55:15;3.20;;;2.90;;
30335;SDS011;17142;47.990;7.846;2023-04-03T04:57:41;5.87;;;3.07;;
30335;SDS011;17142;47.990;7.846;2023-04-03T05:00:12;3.30;;;3.00;;
30335;SDS011;17142;47.990;7.846;2023-04-03T05:02:38;3.03;;;2.73;;
30335;SDS011;17142;47.990;7.846;2023-04-03T05:05:03;2.43;;;2.23;;
30335;SDS011;17142;47.990;7.846;2023-04-03T05:07:29;2.90;;;2.70;;
30335;SDS011;17142;47.990;7.846;2023-04-03T05:09:55;3.77;;;2.60;;
30335;SDS011;17142;47.990;7.846;2023-04-03T05:12:20;3.47;;;2.63;;
30335;SDS011;17142;47.990;7.846;2023-04-03T05:14:47;2.67;;;2.47;;
30335;SDS011;17142;47.990;7.846;2023-04-03T05:17:15;2.60;;;2.40;;
30335;SDS011;17142;47.990;7.846;2023-04-03T05:19:40;2.30;;;2.20;;
30335;SDS011;17142;47.990;7.846;2023-04-03T05:22:10;3.07;;;2.77;;
30335;SDS011;17142;47.990;7.846;2023-04-03T05:24:36;3.20;;;2.90;;
30335;SDS011;17142;47.990;7.846;2023-04-03T05:27:02;2.97;;;2.67;;
30335;SDS011;17142;47.990;7.846;2023-04-03T05:29:28;2.33;;;2.10;;
30335;SDS011;17142;47.990;7.846;2023-04-03T05:31:53;3.23;;;2.50;;
30335;SDS011;17142;47.990;7.846;2023-04-03T05:34:19;3.60;;;3.27;;
30335;SDS011;17142;47.990;7.846;2023-04-03T05:36:49;2.90;;;2.70;;
30335;SDS011;17142;47.990;7.846;2023-04-03T05:39:17;2.83;;;2.63;;
30335;SDS011;17142;47.990;7.846;2023-04-03T05:41:45;3.10;;;2.60;;
30335;SDS011;17142;47.990;7.846;2023-04-03T05:44:11;2.97;;;2.67;;
30335;SDS011;17142;47.990;7.846;2023-04-03T05:46:39;3.03;;;2.83;;
30335;SDS011;17142;47.990;7.846;2023-04-03T05:49:10;3.17;;;2.60;;
30335;SDS011;17142;47.990;7.846;2023-04-03T05:51:36;3.17;;;2.87;;
30335;SDS011;17142;47.990;7.846;2023-04-03T05:54:12;3.77;;;3.07;;
30335;SDS011;17142;47.990;7.846;2023-04-03T05:56:44;4.87;;;2.90;;
30335;SDS011;17142;47.990;7.846;2023-04-03T05:59:10;5.50;;;3.17;;
30335;SDS011;17142;47.990;7.846;2023-04-03T06:01:36;2.87;;;2.67;;
30335;SDS011;17142;47.990;7.846;2023-04-03T06:04:04;5.40;;;2.97;;
30335;SDS011;17142;47.990;7.846;2023-04-03T06:09:20;4.40;;;3.43;;
30335;SDS011;17142;47.990;7.846;2023-04-03T06:11:47;4.43;;;3.70;;
30335;SDS011;17142;47.990;7.846;2023-04-03T06:14:13;3.23;;;2.93;;
30335;SDS011;17142;47.990;7.846;2023-04-03T06:16:41;4.33;;;3.93;;
30335;SDS011;17142;47.990;7.846;2023-04-03T06:19:10;3.50;;;2.80;;
30335;SDS011;17142;47.990;7.846;2023-04-03T06:21:36;4.53;;;3.30;;
30335;SDS011;17142;47.990;7.846;2023-04-03T06:24:02;3.13;;;2.80;;
30335;SDS011;17142;47.990;7.846;2023-04-03T06:26:29;3.23;;;2.93;;
30335;SDS011;17142;47.990;7.846;2023-04-03T06:29:00;4.70;;;4.03;;
30335;SDS011;17142;47.990;7.846;2023-04-03T06:31:27;3.40;;;2.90;;
30335;SDS011;17142;47.990;7.846;2023-04-03T06:33:52;4.20;;;3.27;;
30335;SDS011;17142;47.990;7.846;2023-04-03T06:36:19;7.23;;;2.90;;
30335;SDS011;17142;47.990;7.846;2023-04-03T06:38:46;2.40;;;2.03;;
30335;SDS011;17142;47.990;7.846;2023-04-03T06:41:12;3.10;;;2.47;;
30335;SDS011;17142;47.990;7.846;2023-04-03T06:43:38;4.60;;;3.47;;
30335;SDS011;17142;47.990;7.846;2023-04-03T06:46:03;3.33;;;2.50;;
30335;SDS011;17142;47.990;7.846;2023-04-03T06:48:30;2.60;;;2.40;;
30335;SDS011;17142;47.990;7.846;2023-04-03T06:50:56;2.40;;;1.93;;
30335;SDS011;17142;47.990;7.846;2023-04-03T06:53:23;5.90;;;1.90;;
30335;SDS011;17142;47.990;7.846;2023-04-03T06:55:51;2.40;;;2.20;;
30335;SDS011;17142;47.990;7.846;2023-04-03T06:58:17;2.30;;;2.03;;
30335;SDS011;17142;47.990;7.846;2023-04-03T07:00:43;2.87;;;1.80;;
30335;SDS011;17142;47.990;7.846;2023-04-03T07:03:09;2.50;;;1.80;;
30335;SDS011;17142;47.990;7.846;2023-04-03T07:05:35;1.90;;;1.50;;
30335;SDS011;17142;47.990;7.846;2023-04-03T07:08:00;2.17;;;2.00;;
30335;SDS011;17142;47.990;7.846;2023-04-03T07:10:26;1.93;;;1.33;;
30335;SDS011;17142;47.990;7.846;2023-04-03T07:12:52;2.03;;;1.83;;
30335;SDS011;17142;47.990;7.846;2023-04-03T07:15:20;2.13;;;1.60;;
30335;SDS011;17142;47.990;7.846;2023-04-03T07:17:45;2.83;;;2.00;;
30335;SDS011;17142;47.990;7.846;2023-04-03T07:20:11;1.77;;;1.67;;
30335;SDS011;17142;47.990;7.846;2023-04-03T07:22:37;2.23;;;1.67;;
30335;SDS011;17142;47.990;7.846;2023-04-03T07:25:03;1.60;;;1.40;;
30335;SDS011;17142;47.990;7.846;2023-04-03T07:27:29;1.97;;;1.60;;
30335;SDS011;17142;47.990;7.846;2023-04-03T07:29:57;1.73;;;1.63;;
30335;SDS011;17142;47.990;7.846;2023-04-03T07:32:22;2.53;;;1.93;;
30335;SDS011;17142;47.990;7.846;2023-04-03T07:34:48;1.90;;;1.80;;
30335;SDS011;17142;47.990;7.846;2023-04-03T07:37:17;1.80;;;1.70;;
30335;SDS011;17142;47.990;7.846;2023-04-03T07:39:43;2.07;;;1.87;;
30335;SDS011;17142;47.990;7.846;2023-04-03T07:42:11;4.17;;;2.03;;
30335;SDS011;17142;47.990;7.846;2023-04-03T07:44:38;2.33;;;2.13;;
30335;SDS011;17142;47.990;7.846;2023-04-03T07:47:06;2.50;;;2.30;;
30335;SDS011;17142;47.990;7.846;2023-04-03T07:49:31;3.13;;;2.50;;
30335;SDS011;17142;47.990;7.846;2023-04-03T07:52:04;2.63;;;2.40;;
30335;SDS011;17142;47.990;7.846;2023-04-03T07:54:30;2.80;;;2.23;;
30335;SDS011;17142;47.990;7.846;2023-04-03T07:56:56;2.90;;;2.30;;
30335;SDS011;17142;47.990;7.846;2023-04-03T07:59:22;2.67;;;2.47;;
30335;SDS011;17142;47.990;7.846;2023-04-03T08:01:48;3.07;;;2.40;;
30335;SDS011;17142;47.990;7.846;2023-04-03T08:04:13;2.93;;;2.70;;
30335;SDS011;17142;47.990;7.846;2023-04-03T08:06:39;2.80;;;2.20;;
30335;SDS011;17142;47.990;7.846;2023-04-03T08:09:05;5.03;;;2.60;;
30335;SDS011;17142;47.990;7.846;2023-04-03T08:11:30;2.83;;;2.63;;
30335;SDS011;17142;47.990;7.846;2023-04-03T08:13:56;3.77;;;2.90;;
30335;SDS011;17142;47.990;7.846;2023-04-03T08:16:23;2.40;;;2.20;;
30335;SDS011;17142;47.990;7.846;2023-04-03T08:18:52;2.60;;;2.20;;
30335;SDS011;17142;47.990;7.846;2023-04-03T08:21:20;2.80;;;2.60;;
30335;SDS011;17142;47.990;7.846;2023-04-03T08:23:47;2.80;;;2.10;;
30335;SDS011;17142;47.990;7.846;2023-04-03T08:26:18;2.70;;;2.50;;
30335;SDS011;17142;47.990;7.846;2023-04-03T08:28:46;3.83;;;3.00;;
30335;SDS011;17142;47.990;7.846;2023-04-03T08:31:13;4.63;;;2.90;;
30335;SDS011;17142;47.990;7.846;2023-04-03T08:33:40;3.20;;;2.87;;
30335;SDS011;17142;47.990;7.846;2023-04-03T08:36:07;4.80;;;3.10;;
30335;SDS011;17142;47.990;7.846;2023-04-03T08:38:41;4.70;;;3.77;;
30335;SDS011;17142;47.990;7.846;2023-04-03T08:44:15;2.97;;;2.60;;
30335;SDS011;17142;47.990;7.846;2023-04-03T08:50:14;4.23;;;3.63;;
30335;SDS011;17142;47.990;7.846;2023-04-03T08:52:46;4.33;;;2.83;;
30335;SDS011;17142;47.990;7.846;2023-04-03T08:55:22;3.17;;;2.87;;
30335;SDS011;17142;47.990;7.846;2023-04-03T08:57:55;3.60;;;2.83;;
30335;SDS011;17142;47.990;7.846;2023-04-03T09:00:28;3.53;;;2.97;;
30335;SDS011;17142;47.990;7.846;2023-04-03T09:03:02;8.00;;;3.63;;
30335;SDS011;17142;47.990;7.846;2023-04-03T09:10:52;3.33;;;2.70;;
30335;SDS011;17142;47.990;7.846;2023-04-03T09:22:09;3.67;;;3.23;;
30335;SDS011;17142;47.990;7.846;2023-04-03T09:24:37;4.23;;;3.57;;
30335;SDS011;17142;47.990;7.846;2023-04-03T09:27:04;4.13;;;2.80;;
30335;SDS011;17142;47.990;7.846;2023-04-03T09:29:33;4.80;;;2.87;;
30335;SDS011;17142;47.990;7.846;2023-04-03T09:32:12;3.37;;;3.07;;
30335;SDS011;17142;47.990;7.846;2023-04-03T09:34:43;3.07;;;2.83;;
30335;SDS011;17142;47.990;7.846;2023-04-03T09:37:12;4.23;;;2.77;;
30335;SDS011;17142;47.990;7.846;2023-04-03T09:40:01;6.30;;;3.30;;
30335;SDS011;17142;47.990;7.846;2023-04-03T09:42:30;3.40;;;2.40;;
30335;SDS011;17142;47.990;7.846;2023-04-03T09:44:58;2.73;;;2.47;;
30335;SDS011;17142;47.990;7.846;2023-04-03T09:47:29;2.07;;;1.90;;
30335;SDS011;17142;47.990;7.846;2023-04-03T09:52:43;2.30;;;2.03;;
30335;SDS011;17142;47.990;7.846;2023-04-03T09:55:14;3.00;;;2.27;;
30335;SDS011;17142;47.990;7.846;2023-04-03T09:57:40;2.50;;;2.23;;
30335;SDS011;17142;47.990;7.846;2023-04-03T10:00:10;4.20;;;3.90;;
30335;SDS011;17142;47.990;7.846;2023-04-03T10:02:46;2.40;;;2.20;;
30335;SDS011;17142;47.990;7.846;2023-04-03T10:08:07;2.00;;;1.80;;
30335;SDS011;17142;47.990;7.846;2023-04-03T10:10:36;3.73;;;2.37;;
30335;SDS011;17142;47.990;7.846;2023-04-03T10:13:04;1.47;;;1.37;;
30335;SDS011;17142;47.990;7.846;2023-04-03T10:15:36;1.60;;;1.50;;
30335;SDS011;17142;47.990;7.846;2023-04-03T10:18:31;3.03;;;2.00;;
30335;SDS011;17142;47.990;7.846;2023-04-03T10:21:02;2.17;;;1.70;;
30335;SDS011;17142;47.990;7.846;2023-04-03T10:23:38;2.10;;;1.90;;
30335;SDS011;17142;47.990;7.846;2023-04-03T10:26:26;2.00;;;1.90;;
30335;SDS011;17142;47.990;7.846;2023-04-03T10:34:20;1.80;;;1.70;;
30335;SDS011;17142;47.990;7.846;2023-04-03T10:36:51;2.70;;;1.93;;
30335;SDS011;17142;47.990;7.846;2023-04-03T10:39:33;2.57;;;2.10;;
30335;SDS011;17142;47.990;7.846;2023-04-03T10:45:44;6.10;;;2.43;;
30335;SDS011;17142;47.990;7.846;2023-04-03T10:58:56;2.03;;;1.83;;
30335;SDS011;17142;47.990;7.846;2023-04-03T11:01:33;1.90;;;1.80;;
30335;SDS011;17142;47.990;7.846;2023-04-03T11:04:03;2.67;;;1.87;;
30335;SDS011;17142;47.990;7.846;2023-04-03T11:06:53;3.07;;;2.23;;
30335;SDS011;17142;47.990;7.846;2023-04-03T11:09:22;2.30;;;1.93;;
30335;SDS011;17142;47.990;7.846;2023-04-03T11:11:55;2.40;;;1.83;;
30335;SDS011;17142;47.990;7.846;2023-04-03T11:14:42;1.67;;;1.50;;
30335;SDS011;17142;47.990;7.846;2023-04-03T11:19:51;1.53;;;1.40;;
30335;SDS011;17142;47.990;7.846;2023-04-03T11:22:26;2.27;;;2.07;;
30335;SDS011;17142;47.990;7.846;2023-04-03T11:25:31;1.83;;;1.70;;
30335;SDS011;17142;47.990;7.846;2023-04-03T11:27:57;2.50;;;1.70;;
30335;SDS011;17142;47.990;7.846;2023-04-03T11:30:49;2.50;;;1.80;;
30335;SDS011;17142;47.990;7.846;2023-04-03T11:36:11;1.67;;;1.53;;
30335;SDS011;17142;47.990;7.846;2023-04-03T11:38:45;2.00;;;1.80;;
30335;SDS011;17142;47.990;7.846;2023-04-03T11:41:13;2.30;;;2.10;;
30335;SDS011;17142;47.990;7.846;2023-04-03T11:43:43;5.03;;;1.47;;
30335;SDS011;17142;47.990;7.846;2023-04-03T11:46:21;2.57;;;1.80;;
30335;SDS011;17142;47.990;7.846;2023-04-03T11:48:51;3.80;;;2.23;;
30335;SDS011;17142;47.990;7.846;2023-04-03T11:53:53;1.63;;;1.53;;
30335;SDS011;17142;47.990;7.846;2023-04-03T12:01:44;2.30;;;2.10;;
30335;SDS011;17142;47.990;7.846;2023-04-03T12:04:18;2.63;;;1.90;;
30335;SDS011;17142;47.990;7.846;2023-04-03T12:09:22;2.40;;;2.20;;
30335;SDS011;17142;47.990;7.846;2023-04-03T12:11:48;1.87;;;1.73;;
30335;SDS011;17142;47.990;7.846;2023-04-03T12:14:14;2.17;;;1.97;;
30335;SDS011;17142;47.990;7.846;2023-04-03T12:16:42;2.30;;;2.10;;
30335;SDS011;17142;47.990;7.846;2023-04-03T12:32:12;1.87;;;1.77;;
30335;SDS011;17142;47.990;7.846;2023-04-03T12:35:14;2.57;;;1.97;;
30335;SDS011;17142;47.990;7.846;2023-04-03T12:46:45;2.93;;;1.93;;
30335;SDS011;17142;47.990;7.846;2023-04-03T12:52:06;2.77;;;2.07;;
30335;SDS011;17142;47.990;7.846;2023-04-03T12:54:43;2.87;;;2.13;;
30335;SDS011;17142;47.990;7.846;2023-04-03T12:59:44;2.07;;;1.60;;
30335;SDS011;17142;47.990;7.846;2023-04-03T13:04:49;2.43;;;2.13;;
30335;SDS011;17142;47.990;7.846;2023-04-03T13:07:23;2.20;;;1.57;;
30335;SDS011;17142;47.990;7.846;2023-04-03T13:09:57;2.60;;;2.40;;
30335;SDS011;17142;47.990;7.846;2023-04-03T13:12:30;3.30;;;2.20;;
30335;SDS011;17142;47.990;7.846;2023-04-03T13:14:57;2.20;;;1.53;;
30335;SDS011;17142;47.990;7.846;2023-04-03T13:17:29;2.50;;;1.70;;
30335;SDS011;17142;47.990;7.846;2023-04-03T13:20:13;2.80;;;1.70;;
30335;SDS011;17142;47.990;7.846;2023-04-03T13:22:46;2.07;;;1.87;;
30335;SDS011;17142;47.990;7.846;2023-04-03T13:25:16;2.00;;;1.70;;
30335;SDS011;17142;47.990;7.846;2023-04-03T13:27:45;2.03;;;1.93;;
30335;SDS011;17142;47.990;7.846;2023-04-03T13:30:21;1.80;;;1.60;;
30335;SDS011;17142;47.990;7.846;2023-04-03T13:33:03;2.67;;;2.13;;
30335;SDS011;17142;47.990;7.846;2023-04-03T13:38:02;1.87;;;1.77;;
30335;SDS011;17142;47.990;7.846;2023-04-03T13:40:31;2.30;;;2.10;;
30335;SDS011;17142;47.990;7.846;2023-04-03T13:43:01;2.50;;;2.30;;
30335;SDS011;17142;47.990;7.846;2023-04-03T13:45:53;2.40;;;2.17;;
30335;SDS011;17142;47.990;7.846;2023-04-03T13:48:34;2.20;;;2.10;;
30335;SDS011;17142;47.990;7.846;2023-04-03T13:51:03;3.47;;;2.00;;
30335;SDS011;17142;47.990;7.846;2023-04-03T13:53:56;2.10;;;1.90;;
30335;SDS011;17142;47.990;7.846;2023-04-03T13:58:58;2.47;;;1.87;;
30335;SDS011;17142;47.990;7.846;2023-04-03T14:01:24;1.73;;;1.63;;
30335;SDS011;17142;47.990;7.846;2023-04-03T14:03:57;1.53;;;1.43;;
30335;SDS011;17142;47.990;7.846;2023-04-03T14:06:34;2.50;;;2.30;;
30335;SDS011;17142;47.990;7.846;2023-04-03T14:09:03;1.50;;;1.40;;
30335;SDS011;17142;47.990;7.846;2023-04-03T14:11:29;1.73;;;1.53;;
30335;SDS011;17142;47.990;7.846;2023-04-03T14:13:56;2.50;;;1.40;;
30335;SDS011;17142;47.990;7.846;2023-04-03T14:16:26;1.90;;;1.70;;
30335;SDS011;17142;47.990;7.846;2023-04-03T14:18:54;1.93;;;1.70;;
30335;SDS011;17142;47.990;7.846;2023-04-03T14:21:20;2.83;;;1.97;;
30335;SDS011;17142;47.990;7.846;2023-04-03T14:23:46;1.97;;;1.77;;
30335;SDS011;17142;47.990;7.846;2023-04-03T14:26:16;2.57;;;1.80;;
30335;SDS011;17142;47.990;7.846;2023-04-03T14:28:48;3.07;;;2.27;;
30335;SDS011;17142;47.990;7.846;2023-04-03T14:31:16;1.73;;;1.53;;
30335;SDS011;17142;47.990;7.846;2023-04-03T14:33:43;3.10;;;2.03;;
30335;SDS011;17142;47.990;7.846;2023-04-03T14:36:30;2.33;;;2.10;;
30335;SDS011;17142;47.990;7.846;2023-04-03T14:38:56;2.70;;;1.90;;
30335;SDS011;17142;47.990;7.846;2023-04-03T14:41:25;1.50;;;1.40;;
30335;SDS011;17142;47.990;7.846;2023-04-03T14:43:51;3.10;;;2.17;;
30335;SDS011;17142;47.990;7.846;2023-04-03T14:46:19;2.20;;;1.80;;
30335;SDS011;17142;47.990;7.846;2023-04-03T14:49:01;3.73;;;3.03;;
30335;SDS011;17142;47.990;7.846;2023-04-03T14:51:32;2.70;;;2.00;;
30335;SDS011;17142;47.990;7.846;2023-04-03T14:53:58;2.13;;;1.80;;
30335;SDS011;17142;47.990;7.846;2023-04-03T14:56:26;3.53;;;2.00;;
30335;SDS011;17142;47.990;7.846;2023-04-03T14:58:55;2.20;;;2.00;;
30335;SDS011;17142;47.990;7.846;2023-04-03T15:01:27;2.23;;;2.00;;
30335;SDS011;17142;47.990;7.846;2023-04-03T15:03:53;2.63;;;2.30;;
30335;SDS011;17142;47.990;7.846;2023-04-03T15:06:23;2.30;;;1.93;;
30335;SDS011;17142;47.990;7.846;2023-04-03T15:08:50;3.87;;;2.00;;
30335;SDS011;17142;47.990;7.846;2023-04-03T15:11:15;3.00;;;1.90;;
30335;SDS011;17142;47.990;7.846;2023-04-03T15:13:41;2.03;;;1.93;;
30335;SDS011;17142;47.990;7.846;2023-04-03T15:16:25;2.73;;;1.80;;
30335;SDS011;17142;47.990;7.846;2023-04-03T15:18:51;2.10;;;1.80;;
30335;SDS011;17142;47.990;7.846;2023-04-03T15:21:17;4.03;;;2.67;;
30335;SDS011;17142;47.990;7.846;2023-04-03T15:23:42;2.93;;;2.13;;
30335;SDS011;17142;47.990;7.846;2023-04-03T15:26:08;2.50;;;2.00;;
30335;SDS011;17142;47.990;7.846;2023-04-03T15:28:41;1.90;;;1.80;;
30335;SDS011;17142;47.990;7.846;2023-04-03T15:31:07;4.37;;;2.57;;
30335;SDS011;17142;47.990;7.846;2023-04-03T15:33:34;2.40;;;2.20;;
30335;SDS011;17142;47.990;7.846;2023-04-03T15:36:00;2.30;;;2.10;;
30335;SDS011;17142;47.990;7.846;2023-04-03T15:38:27;2.77;;;2.57;;
30335;SDS011;17142;47.990;7.846;2023-04-03T15:40:53;2.60;;;2.30;;
30335;SDS011;17142;47.990;7.846;2023-04-03T15:43:19;3.23;;;2.00;;
30335;SDS011;17142;47.990;7.846;2023-04-03T15:45:45;4.17;;;2.33;;
30335;SDS011;17142;47.990;7.846;2023-04-03T15:48:11;2.77;;;2.10;;
30335;SDS011;17142;47.990;7.846;2023-04-03T15:50:39;2.43;;;1.93;;
30335;SDS011;17142;47.990;7.846;2023-04-03T15:53:07;3.40;;;2.33;;
30335;SDS011;17142;47.990;7.846;2023-04-03T15:55:34;3.60;;;2.20;;
30335;SDS011;17142;47.990;7.846;2023-04-03T15:58:01;3.00;;;1.80;;
30335;SDS011;17142;47.990;7.846;2023-04-03T16:00:27;1.77;;;1.67;;
30335;SDS011;17142;47.990;7.846;2023-04-03T16:03:02;2.37;;;1.83;;
30335;SDS011;17142;47.990;7.846;2023-04-03T16:05:30;2.27;;;2.10;;
30335;SDS011;17142;47.990;7.846;2023-04-03T16:08:03;2.27;;;2.07;;
30335;SDS011;17142;47.990;7.846;2023-04-03T16:10:36;6.40;;;2.43;;
30335;SDS011;17142;47.990;7.846;2023-04-03T16:13:10;1.63;;;1.53;;
30335;SDS011;17142;47.990;7.846;2023-04-03T16:15:36;2.20;;;2.00;;
30335;SDS011;17142;47.990;7.846;2023-04-03T16:18:05;2.23;;;2.03;;
30335;SDS011;17142;47.990;7.846;2023-04-03T16:20:41;2.00;;;1.70;;
30335;SDS011;17142;47.990;7.846;2023-04-03T16:23:09;1.70;;;1.60;;
30335;SDS011;17142;47.990;7.846;2023-04-03T16:25:42;2.47;;;1.90;;
30335;SDS011;17142;47.990;7.846;2023-04-03T16:28:14;2.57;;;1.80;;
30335;SDS011;17142;47.990;7.846;2023-04-03T16:30:41;2.10;;;1.57;;
30335;SDS011;17142;47.990;7.846;2023-04-03T16:33:18;3.20;;;2.57;;
30335;SDS011;17142;47.990;7.846;2023-04-03T16:35:46;2.37;;;1.80;;
30335;SDS011;17142;47.990;7.846;2023-04-03T16:38:25;2.00;;;1.80;;
30335;SDS011;17142;47.990;7.846;2023-04-03T16:40:54;2.10;;;1.90;;
30335;SDS011;17142;47.990;7.846;2023-04-03T16:43:30;2.30;;;1.67;;
30335;SDS011;17142;47.990;7.846;2023-04-03T16:45:57;4.00;;;1.60;;
30335;SDS011;17142;47.990;7.846;2023-04-03T16:48:31;1.83;;;1.70;;
30335;SDS011;17142;47.990;7.846;2023-04-03T16:50:57;3.33;;;1.90;;